Terminal Aerodrome Forecast
Issued by NWS St Louis, MO

Home | Current Version | Previous Version | Text Only | Print | Product List | Glossary On
Versions: 1 2 3 4 5 6 7 8 9 10 11 12 13 14 15 16 17 18 19 20 21 22 23 24 25 26 27 28 29 30 31 32 33
957
FTUS43 KLSX 012340
TAFSTL
TAF
KSTL 012340Z 0200/0306 29014G20KT P6SM SCT060
     FM020200 30007KT P6SM SCT050
     FM020600 31008KT P6SM BKN025
     FM020900 32008KT 6SM BR BKN009 OVC015
     FM021600 33007KT P6SM VCSH BKN015 OVC040
     FM030000 33006KT P6SM BKN030=

USA.gov is the U.S. government's official web portal to all federal, state and local government web resources and services.